createdAt,value
2019-03-13T00:04:58.720Z,2.10
2019-03-13T00:10:01.443Z,2.10
2019-03-13T00:15:05.034Z,2.10
2019-03-13T00:20:09.256Z,2.10
2019-03-13T00:25:11.604Z,2.20
2019-03-13T00:30:14.448Z,2.20
2019-03-13T00:35:17.182Z,2.10
2019-03-13T00:40:19.869Z,2.10
2019-03-13T00:45:22.561Z,2.10
2019-03-13T00:50:27.607Z,2.00
2019-03-13T00:55:30.331Z,2.00
2019-03-13T01:00:51.967Z,1.90
2019-03-13T01:06:00.870Z,1.80
2019-03-13T01:11:03.635Z,1.80
2019-03-13T01:16:06.442Z,1.70
2019-03-13T01:21:09.269Z,1.70
2019-03-13T01:26:13.201Z,1.70
2019-03-13T01:31:44.540Z,1.60
2019-03-13T01:36:47.250Z,1.50
2019-03-13T01:41:49.940Z,1.50
2019-03-13T01:46:52.774Z,1.40
2019-03-13T01:51:55.561Z,1.30
2019-03-13T01:56:58.426Z,1.30
2019-03-13T02:02:01.092Z,1.30
2019-03-13T02:07:03.800Z,1.30
2019-03-13T02:12:06.568Z,1.20
2019-03-13T02:17:09.324Z,1.20
2019-03-13T02:22:12.004Z,1.20
2019-03-13T02:27:14.735Z,1.20
2019-03-13T02:32:17.391Z,1.10
2019-03-13T02:37:20.124Z,1.10
2019-03-13T02:42:22.779Z,1.20
2019-03-13T02:47:25.428Z,1.10
2019-03-13T02:52:28.142Z,1.10
2019-03-13T02:57:30.810Z,1.10
2019-03-13T03:02:40.967Z,1.10
2019-03-13T03:07:49.618Z,1.10
2019-03-13T03:12:52.385Z,1.00
2019-03-13T03:17:55.176Z,1.00
2019-03-13T03:22:57.972Z,1.00
2019-03-13T03:28:00.644Z,0.90
2019-03-13T03:33:03.371Z,0.90
2019-03-13T03:38:06.191Z,0.90
2019-03-13T03:43:08.989Z,0.90
2019-03-13T03:48:11.688Z,0.90
2019-03-13T03:53:14.489Z,0.90
2019-03-13T03:58:17.182Z,0.90
2019-03-13T04:03:19.873Z,0.90
2019-03-13T04:08:22.615Z,0.90
2019-03-13T04:13:25.333Z,0.90
2019-03-13T04:18:28.187Z,0.90
2019-03-13T04:23:30.960Z,0.90
2019-03-13T04:28:33.645Z,0.90
2019-03-13T04:33:36.444Z,0.90
2019-03-13T04:38:39.243Z,1.00
2019-03-13T04:43:44.831Z,1.00
2019-03-13T04:48:47.588Z,1.00
2019-03-13T04:53:50.362Z,1.10
2019-03-13T04:58:53.066Z,1.20
2019-03-13T05:03:55.789Z,1.30
2019-03-13T05:09:01.434Z,1.50
2019-03-13T05:14:06.113Z,1.60
2019-03-13T05:19:08.775Z,1.80
2019-03-13T05:24:11.427Z,1.90
2019-03-13T05:29:14.179Z,2.00
2019-03-13T05:34:17.034Z,2.20
2019-03-13T05:39:19.853Z,2.20
2019-03-13T05:44:22.441Z,2.30
2019-03-13T05:49:25.214Z,2.30
2019-03-13T05:54:28.003Z,2.40
2019-03-13T05:59:30.718Z,2.40
2019-03-13T06:04:33.424Z,2.40
2019-03-13T06:09:36.122Z,2.40
2019-03-13T06:14:38.787Z,2.40
2019-03-13T06:19:41.649Z,2.40
2019-03-13T06:24:44.280Z,2.50
2019-03-13T06:29:46.959Z,2.50
2019-03-13T06:34:49.661Z,2.60
2019-03-13T06:39:53.223Z,2.70
2019-03-13T06:44:55.922Z,2.70
2019-03-13T06:49:58.608Z,2.80
2019-03-13T06:55:01.585Z,2.90
2019-03-13T07:00:24.183Z,3.00
2019-03-13T07:05:51.870Z,3.10
2019-03-13T07:11:13.957Z,3.20
2019-03-13T07:16:42.166Z,3.40
2019-03-13T07:22:07.233Z,3.40
2019-03-13T07:27:29.429Z,3.60
2019-03-13T07:33:00.970Z,3.70
2019-03-13T07:38:32.365Z,3.80
2019-03-13T07:44:03.643Z,3.80
2019-03-13T07:49:16.584Z,3.80
2019-03-13T07:54:42.137Z,4.00
2019-03-13T08:00:03.272Z,4.20
2019-03-13T08:05:23.056Z,4.20
2019-03-13T08:10:45.279Z,4.20
2019-03-13T08:15:55.747Z,4.20
2019-03-13T08:21:11.250Z,4.30
2019-03-13T08:26:53.029Z,4.20
2019-03-13T08:32:09.966Z,4.20
2019-03-13T08:37:42.089Z,4.10
2019-03-13T08:43:04.603Z,4.10
2019-03-13T08:48:32.778Z,4.10
2019-03-13T08:53:56.043Z,4.10
2019-03-13T08:59:23.734Z,4.10
2019-03-13T09:04:35.869Z,4.10
2019-03-13T09:10:01.012Z,4.30
2019-03-13T09:15:24.324Z,4.40
2019-03-13T09:20:36.663Z,4.40
2019-03-13T09:26:08.118Z,4.30
2019-03-13T09:31:28.812Z,4.30
2019-03-13T09:36:42.679Z,4.30
2019-03-13T09:41:57.755Z,4.40
2019-03-13T09:47:35.005Z,4.40
2019-03-13T09:53:06.243Z,4.50
2019-03-13T09:58:31.521Z,4.50
2019-03-13T10:03:40.426Z,4.50
2019-03-13T10:09:21.013Z,4.40
2019-03-13T10:14:43.177Z,4.40
2019-03-13T10:19:56.023Z,4.40
2019-03-13T10:25:21.399Z,4.40
2019-03-13T10:30:52.661Z,4.50
2019-03-13T10:36:17.548Z,4.60
2019-03-13T10:41:29.327Z,4.60
2019-03-13T10:46:38.477Z,4.70
2019-03-13T10:57:49.699Z,4.70
2019-03-13T11:03:17.793Z,4.80
2019-03-13T11:08:41.771Z,4.80
2019-03-13T11:14:15.020Z,4.90
2019-03-13T11:19:26.884Z,4.80
2019-03-13T11:24:34.606Z,4.80
2019-03-13T11:29:59.851Z,4.80
2019-03-13T11:35:21.127Z,4.80
2019-03-13T11:40:50.563Z,4.80
2019-03-13T11:46:17.889Z,4.70
2019-03-13T11:51:48.835Z,4.70
2019-03-13T11:57:13.209Z,4.60
2019-03-13T12:02:35.369Z,4.70
2019-03-13T12:08:03.678Z,4.60
2019-03-13T12:13:20.849Z,4.70
2019-03-13T12:18:35.046Z,4.70
2019-03-13T12:24:00.969Z,4.80
2019-03-13T12:29:22.488Z,4.80
2019-03-13T12:34:31.600Z,4.80
2019-03-13T12:39:52.563Z,4.90
2019-03-13T12:45:17.546Z,5.00
2019-03-13T12:50:39.733Z,5.00
2019-03-13T12:56:08.136Z,5.00
2019-03-13T13:01:28.888Z,5.10
2019-03-13T13:06:47.670Z,5.10
2019-03-13T13:12:07.993Z,5.20
2019-03-13T13:17:22.443Z,5.10
2019-03-13T13:22:25.129Z,5.10
2019-03-13T13:27:27.936Z,5.00
2019-03-13T13:32:30.618Z,5.00
2019-03-13T13:37:33.328Z,5.00
2019-03-13T13:42:36.007Z,5.00
2019-03-13T13:47:38.689Z,5.00
2019-03-13T13:52:41.408Z,5.10
2019-03-13T13:57:44.018Z,5.20
2019-03-13T14:02:46.700Z,5.20
2019-03-13T14:07:49.386Z,5.20
2019-03-13T14:12:51.988Z,5.10
2019-03-13T14:17:54.817Z,5.10
2019-03-13T14:22:57.411Z,5.20
2019-03-13T14:28:00.161Z,5.30
2019-03-13T14:33:02.942Z,5.30
2019-03-13T14:38:05.759Z,5.30
2019-03-13T14:43:08.524Z,5.30
2019-03-13T14:48:11.183Z,5.30
2019-03-13T14:53:13.900Z,5.30
2019-03-13T14:58:16.654Z,5.30
2019-03-13T15:03:19.452Z,5.30
2019-03-13T15:08:27.316Z,5.30
2019-03-13T15:13:30.183Z,5.30
2019-03-13T15:18:32.925Z,5.30
2019-03-13T15:23:35.788Z,5.30
2019-03-13T15:28:39.325Z,5.30
2019-03-13T15:33:42.030Z,5.30
2019-03-13T15:38:44.831Z,5.30
2019-03-13T15:43:47.667Z,5.30
2019-03-13T15:48:50.427Z,5.20
2019-03-13T15:53:53.064Z,5.20
2019-03-13T15:58:55.810Z,5.20
2019-03-13T16:04:00.897Z,5.20
2019-03-13T16:09:06.056Z,5.10
2019-03-13T16:14:10.651Z,5.10
2019-03-13T16:19:13.404Z,5.10
2019-03-13T16:24:16.555Z,5.10
2019-03-13T16:29:19.446Z,5.10
2019-03-13T16:34:22.139Z,5.10
2019-03-13T16:39:24.775Z,5.10
2019-03-13T16:44:27.384Z,5.10
2019-03-13T16:49:30.058Z,5.10
2019-03-13T16:54:32.761Z,5.00
2019-03-13T16:59:38.728Z,5.00
2019-03-13T17:04:41.523Z,4.90
2019-03-13T17:09:44.172Z,4.90
2019-03-13T17:14:47.794Z,4.90
2019-03-13T17:19:52.210Z,4.80
2019-03-13T17:24:54.891Z,4.80
2019-03-13T17:29:57.660Z,4.80
2019-03-13T17:35:00.488Z,4.80
2019-03-13T17:40:04.155Z,4.70
2019-03-13T17:45:10.416Z,4.70
2019-03-13T17:50:14.324Z,4.70
2019-03-13T17:55:17.233Z,4.70
2019-03-13T18:00:22.167Z,4.70
2019-03-13T18:05:24.761Z,4.70
2019-03-13T18:10:27.618Z,4.60
2019-03-13T18:15:30.427Z,4.70
2019-03-13T18:20:33.315Z,4.70
2019-03-13T18:25:36.040Z,4.70
2019-03-13T18:30:38.825Z,4.70
2019-03-13T18:35:41.455Z,4.70
2019-03-13T18:40:44.191Z,4.70
2019-03-13T18:45:46.965Z,4.70
2019-03-13T18:50:49.527Z,4.70
2019-03-13T18:55:52.224Z,4.70
2019-03-13T19:00:57.959Z,4.70
2019-03-13T19:05:59.495Z,4.70
2019-03-13T19:11:02.269Z,4.70
2019-03-13T19:16:04.988Z,4.70
2019-03-13T19:21:07.725Z,4.70
2019-03-13T19:26:11.583Z,4.70
2019-03-13T19:31:14.293Z,4.70
2019-03-13T19:36:17.046Z,4.70
2019-03-13T19:41:19.811Z,4.70
2019-03-13T19:46:22.659Z,4.70
2019-03-13T19:51:25.619Z,4.70
2019-03-13T19:56:28.458Z,4.70
2019-03-13T20:01:31.819Z,4.70
2019-03-13T20:06:42.181Z,4.70
2019-03-13T20:11:40.538Z,4.70
2019-03-13T20:16:46.489Z,4.80
2019-03-13T20:21:49.800Z,4.70
2019-03-13T20:26:53.208Z,4.70
2019-03-13T20:31:56.813Z,4.70
2019-03-13T20:37:09.960Z,4.80
2019-03-13T20:42:19.416Z,4.80
2019-03-13T20:47:24.298Z,4.80
2019-03-13T20:52:27.177Z,4.80
2019-03-13T20:57:30.095Z,4.80
2019-03-13T21:02:33.794Z,4.80
2019-03-13T21:07:36.586Z,4.80
2019-03-13T21:12:39.451Z,4.80
2019-03-13T21:17:42.328Z,4.80
2019-03-13T21:22:46.680Z,4.80
2019-03-13T21:27:49.452Z,4.80
2019-03-13T21:32:52.135Z,4.80
2019-03-13T21:37:54.771Z,4.80
2019-03-13T21:42:57.473Z,4.80
2019-03-13T21:48:44.198Z,4.80
2019-03-13T21:53:46.875Z,4.80
2019-03-13T21:58:49.574Z,4.80
2019-03-13T22:03:52.281Z,4.80
2019-03-13T22:08:54.932Z,4.80
2019-03-13T22:13:57.636Z,4.70
2019-03-13T22:19:00.382Z,4.70
2019-03-13T22:24:03.164Z,4.80
2019-03-13T22:29:05.932Z,4.80
2019-03-13T22:34:09.333Z,4.80
2019-03-13T22:39:11.980Z,4.80
2019-03-13T22:44:14.735Z,4.80
2019-03-13T22:49:17.381Z,4.80
2019-03-13T22:54:20.293Z,4.80
2019-03-13T22:59:23.116Z,4.80
2019-03-13T23:04:25.900Z,4.80
2019-03-13T23:09:28.468Z,4.80
2019-03-13T23:14:31.187Z,4.80
2019-03-13T23:19:33.911Z,4.80
2019-03-13T23:24:38.068Z,4.80
2019-03-13T23:29:40.946Z,4.80
2019-03-13T23:34:43.601Z,4.80
2019-03-13T23:39:46.338Z,4.80
2019-03-13T23:44:49.012Z,4.80
2019-03-13T23:49:51.702Z,4.80
2019-03-13T23:54:54.439Z,4.80
2019-03-13T23:59:57.210Z,4.70
